Time;durP1;ratioP1;P1;durP2;ratioP2;P2;SDS_P1;SDS_P2;PMS_P1;PMS_P2;Temp;Humidity;BMP_temperature;BMP_pressure;BME280_temperature;BME280_humidity;BME280_pressure;Samples;Min_cycle;Max_cycle;Signal;HPM_P1;HPM_P2
2021/07/29 00:01:19;;;;;;;4.23;3.93;;;17.60;90.70;;;;;;5075240;28;20475;-83
2021/07/29 00:03:46;;;;;;;3.60;3.30;;;17.60;91.50;;;;;;5074376;28;20452;-83
2021/07/29 00:06:18;;;;;;;3.40;3.10;;;17.50;92.00;;;;;;5074407;28;20452;-83
2021/07/29 00:08:45;;;;;;;3.67;3.37;;;17.40;92.60;;;;;;5073473;28;20505;-83
2021/07/29 00:11:12;;;;;;;3.30;3.00;;;17.30;93.10;;;;;;5070170;28;20567;-83
2021/07/29 00:13:39;;;;;;;3.60;3.30;;;17.30;94.20;;;;;;5071621;28;20460;-83
2021/07/29 00:16:06;;;;;;;4.67;3.30;;;17.30;94.30;;;;;;5072254;28;20467;-83
2021/07/29 00:21:19;;;;;;;3.53;3.23;;;17.40;94.30;;;;;;5078005;28;20487;-82
2021/07/29 00:23:50;;;;;;;3.13;2.93;;;17.40;94.30;;;;;;5078647;28;20440;-82
2021/07/29 00:26:17;;;;;;;4.97;2.80;;;17.40;94.30;;;;;;5076319;28;20475;-82
2021/07/29 00:28:44;;;;;;;3.93;3.40;;;17.30;94.30;;;;;;5072678;28;20539;-83
2021/07/29 00:31:11;;;;;;;4.27;3.83;;;17.30;94.00;;;;;;5072184;28;20475;-83
2021/07/29 00:33:38;;;;;;;4.60;3.70;;;17.30;93.70;;;;;;5072552;28;20824;-83
2021/07/29 00:36:06;;;;;;;9.30;3.97;;;17.20;94.00;;;;;;5073348;28;20447;-82
2021/07/29 00:38:34;;;;;;;3.90;3.10;;;17.20;94.20;;;;;;5069879;28;20499;-80
2021/07/29 00:41:01;;;;;;;3.17;2.90;;;17.10;94.20;;;;;;5070004;28;20548;-83
2021/07/29 00:43:29;;;;;;;4.60;3.60;;;17.20;94.40;;;;;;5072137;28;20460;-82
2021/07/29 00:45:58;;;;;;;3.50;3.20;;;17.10;94.20;;;;;;5071860;28;20455;-82
2021/07/29 00:48:25;;;;;;;4.40;3.70;;;17.10;94.80;;;;;;5070852;28;20447;-83
2021/07/29 00:50:52;;;;;;;4.70;3.77;;;17.10;94.80;;;;;;5071521;28;20491;-83
2021/07/29 00:53:20;;;;;;;4.20;3.40;;;17.10;94.60;;;;;;5072235;28;20864;-82
2021/07/29 00:55:49;;;;;;;3.50;3.03;;;17.00;94.60;;;;;;5072010;28;20512;-82
2021/07/29 00:58:16;;;;;;;4.37;3.27;;;16.90;95.00;;;;;;5075686;28;20470;-84
2021/07/29 01:00:43;;;;;;;4.27;3.37;;;16.90;95.60;;;;;;5076488;28;20472;-83
2021/07/29 01:03:10;;;;;;;4.37;3.97;;;16.90;95.80;;;;;;5072639;28;20450;-82
2021/07/29 01:05:37;;;;;;;4.33;3.53;;;16.90;96.00;;;;;;5072852;28;20463;-83
2021/07/29 01:08:05;;;;;;;3.60;3.30;;;16.90;96.10;;;;;;5072952;28;20486;-82
2021/07/29 01:10:32;;;;;;;3.70;3.40;;;17.00;96.00;;;;;;5072048;28;20495;-82
2021/07/29 01:13:00;;;;;;;5.03;3.90;;;16.90;96.10;;;;;;5076844;28;20452;-83
2021/07/29 01:15:27;;;;;;;4.40;3.60;;;16.90;96.00;;;;;;5076884;28;20506;-83
2021/07/29 01:17:59;;;;;;;6.43;3.47;;;17.00;96.00;;;;;;5076371;28;20452;-83
2021/07/29 01:20:28;;;;;;;4.00;3.70;;;17.00;96.00;;;;;;5076670;28;20502;-83
2021/07/29 01:22:55;;;;;;;3.90;3.60;;;17.00;95.80;;;;;;5076964;28;20429;-83
2021/07/29 01:25:22;;;;;;;3.93;3.53;;;17.00;95.50;;;;;;5076069;28;20467;-82
2021/07/29 01:27:49;;;;;;;3.57;3.20;;;17.00;95.20;;;;;;5074767;28;20455;-82
2021/07/29 01:30:16;;;;;;;3.20;2.90;;;17.00;95.20;;;;;;5075947;28;20462;-83
2021/07/29 01:32:43;;;;;;;4.83;3.63;;;17.00;95.20;;;;;;5076536;28;20458;-84
2021/07/29 01:35:11;;;;;;;3.47;3.17;;;17.00;95.30;;;;;;5076799;28;20562;-82
2021/07/29 01:37:41;;;;;;;3.83;3.30;;;16.90;95.50;;;;;;5077157;28;20470;-83
2021/07/29 01:40:09;;;;;;;4.77;3.50;;;16.80;95.30;;;;;;5079875;28;20469;-83
2021/07/29 01:42:36;;;;;;;4.43;3.20;;;16.70;95.80;;;;;;5080445;28;20441;-83
2021/07/29 01:45:04;;;;;;;3.23;2.93;;;16.80;95.90;;;;;;5079266;28;20481;-82
2021/07/29 01:47:31;;;;;;;3.60;3.30;;;16.70;96.00;;;;;;5079391;28;20466;-83
2021/07/29 01:49:58;;;;;;;4.57;3.10;;;16.60;96.30;;;;;;5076993;28;20476;-81
2021/07/29 01:52:25;;;;;;;4.47;3.30;;;16.70;96.70;;;;;;5076377;28;20456;-83
2021/07/29 01:54:53;;;;;;;3.83;3.53;;;16.60;96.60;;;;;;5077232;28;20483;-83
2021/07/29 01:57:22;;;;;;;4.80;3.27;;;16.70;96.90;;;;;;5079796;28;20448;-82
2021/07/29 01:59:49;;;;;;;6.53;3.20;;;16.70;96.60;;;;;;5079100;28;20555;-83
2021/07/29 02:02:16;;;;;;;3.80;3.33;;;16.70;96.40;;;;;;5078914;28;20436;-82
2021/07/29 02:04:43;;;;;;;3.50;3.20;;;16.70;95.90;;;;;;5078684;28;20455;-82
2021/07/29 02:07:10;;;;;;;4.27;3.43;;;16.60;95.80;;;;;;5078334;28;20469;-84
2021/07/29 02:09:37;;;;;;;5.17;4.10;;;16.60;95.90;;;;;;5078964;28;20459;-83
2021/07/29 02:12:06;;;;;;;4.18;3.10;;;16.50;96.20;;;;;;5079025;28;20449;-83
2021/07/29 02:14:33;;;;;;;3.80;3.45;;;16.40;96.40;;;;;;5077762;28;20216;-82
2021/07/29 02:17:00;;;;;;;3.30;3.00;;;16.40;97.00;;;;;;5076635;28;20234;-82
2021/07/29 02:19:27;;;;;;;4.27;3.70;;;16.50;97.30;;;;;;5074989;28;20533;-80
2021/07/29 02:21:53;;;;;;;3.87;3.33;;;16.50;97.20;;;;;;5072630;28;20475;-81
2021/07/29 02:24:20;;;;;;;3.85;3.45;;;16.50;96.60;;;;;;5074155;28;20489;-81
2021/07/29 02:26:47;;;;;;;3.30;3.00;;;16.60;96.50;;;;;;5075962;28;20305;-83
2021/07/29 02:29:16;;;;;;;3.17;2.87;;;16.60;95.80;;;;;;5076527;28;20450;-82
2021/07/29 02:31:43;;;;;;;3.50;2.30;;;16.60;95.40;;;;;;5078145;28;20504;-82
2021/07/29 02:34:10;;;;;;;4.07;3.67;;;16.60;95.10;;;;;;5079967;28;20458;-81
2021/07/29 02:36:37;;;;;;;3.93;3.47;;;16.60;95.20;;;;;;5081229;28;20489;-84
2021/07/29 02:39:04;;;;;;;5.20;3.63;;;16.70;95.60;;;;;;5081214;28;20486;-83
2021/07/29 02:41:31;;;;;;;3.00;2.70;;;16.70;95.40;;;;;;5079851;28;20225;-82
2021/07/29 02:43:58;;;;;;;3.87;3.20;;;16.80;95.30;;;;;;5078215;28;20770;-81
2021/07/29 02:46:26;;;;;;;3.90;3.00;;;16.80;95.00;;;;;;5079623;28;20432;-83
2021/07/29 02:48:53;;;;;;;3.43;3.20;;;16.80;94.10;;;;;;5079478;28;20439;-82
2021/07/29 02:51:20;;;;;;;7.67;3.70;;;16.90;94.10;;;;;;5078555;28;20551;-82
2021/07/29 02:53:47;;;;;;;3.40;3.00;;;16.90;94.10;;;;;;5076781;28;20448;-82
2021/07/29 02:56:14;;;;;;;5.90;3.30;;;17.00;93.10;;;;;;5075816;28;20491;-83
2021/07/29 02:58:41;;;;;;;3.03;2.83;;;17.00;92.70;;;;;;5075468;28;20467;-81
2021/07/29 03:01:08;;;;;;;3.60;3.10;;;17.00;92.40;;;;;;5074557;28;20482;-80
2021/07/29 03:03:36;;;;;;;3.60;2.90;;;17.00;92.30;;;;;;5075087;28;20478;-80
2021/07/29 03:06:03;;;;;;;5.03;3.43;;;17.10;91.70;;;;;;5063237;28;20449;-78
2021/07/29 03:08:30;;;;;;;5.43;3.97;;;17.00;91.20;;;;;;5059150;28;20670;-79
2021/07/29 03:10:58;;;;;;;4.13;3.17;;;17.00;91.10;;;;;;5060564;28;20483;-79
2021/07/29 03:13:26;;;;;;;3.83;3.07;;;17.10;91.30;;;;;;5061964;28;20503;-79
2021/07/29 03:15:53;;;;;;;3.17;2.90;;;17.20;90.50;;;;;;5062506;28;20499;-79
2021/07/29 03:18:20;;;;;;;3.10;2.80;;;17.30;90.20;;;;;;5062392;28;20446;-78
2021/07/29 03:20:49;;;;;;;7.17;2.87;;;17.30;89.20;;;;;;5061503;28;20479;-79
2021/07/29 03:23:16;;;;;;;3.50;2.77;;;17.40;87.60;;;;;;5062303;28;20483;-81
2021/07/29 03:25:43;;;;;;;4.90;3.20;;;17.40;87.20;;;;;;5062607;28;20860;-82
2021/07/29 03:28:10;;;;;;;3.73;3.17;;;17.40;86.80;;;;;;5063034;28;20935;-79
2021/07/29 03:30:37;;;;;;;8.20;3.50;;;17.50;86.40;;;;;;5063825;28;20456;-79
2021/07/29 03:33:05;;;;;;;3.50;3.20;;;17.60;86.10;;;;;;5062461;28;20467;-80
2021/07/29 03:35:32;;;;;;;3.90;3.50;;;17.50;86.10;;;;;;5061051;28;21082;-80
2021/07/29 03:38:01;;;;;;;3.90;3.57;;;17.60;86.20;;;;;;5059634;28;20486;-79
2021/07/29 03:40:28;;;;;;;4.37;3.63;;;17.60;87.20;;;;;;5065320;28;20742;-80
2021/07/29 03:42:56;;;;;;;3.80;3.50;;;17.60;87.50;;;;;;5075696;28;20436;-81
2021/07/29 03:45:23;;;;;;;3.23;2.93;;;17.70;87.20;;;;;;5077050;28;20515;-79
2021/07/29 03:47:50;;;;;;;5.47;3.60;;;17.80;86.80;;;;;;5074097;28;20474;-83
2021/07/29 03:50:17;;;;;;;3.40;3.10;;;17.80;86.90;;;;;;5078290;28;20484;-83
2021/07/29 03:52:44;;;;;;;5.53;3.27;;;17.80;86.50;;;;;;5078637;28;20433;-87
2021/07/29 03:55:12;;;;;;;3.60;3.30;;;18.00;85.30;;;;;;5076752;28;20503;-82
2021/07/29 03:57:39;;;;;;;9.00;3.47;;;18.00;85.40;;;;;;5072387;28;20523;-81
2021/07/29 04:00:07;;;;;;;4.17;3.50;;;18.00;84.80;;;;;;5069973;28;20477;-80
2021/07/29 04:02:35;;;;;;;5.30;3.83;;;18.10;84.50;;;;;;5072450;28;20444;-81
2021/07/29 04:05:02;;;;;;;4.33;3.27;;;18.10;83.70;;;;;;5067293;28;20491;-82
2021/07/29 04:07:29;;;;;;;5.30;3.70;;;18.10;83.70;;;;;;5065555;28;20487;-80
2021/07/29 04:09:56;;;;;;;7.43;3.07;;;18.20;83.80;;;;;;5065555;28;20506;-80
2021/07/29 04:12:24;;;;;;;3.80;3.50;;;18.20;84.30;;;;;;5067161;28;20936;-81
2021/07/29 04:14:51;;;;;;;5.43;3.70;;;18.20;83.80;;;;;;5064643;28;20450;-81
2021/07/29 04:17:18;;;;;;;4.57;3.27;;;18.20;84.30;;;;;;5062576;28;20436;-79
2021/07/29 04:19:46;;;;;;;3.53;3.33;;;18.20;84.90;;;;;;5068880;28;20449;-79
2021/07/29 04:22:13;;;;;;;3.80;3.47;;;18.20;84.20;;;;;;5063377;28;20429;-81
2021/07/29 04:24:40;;;;;;;3.80;3.50;;;18.30;84.90;;;;;;5067256;28;20491;-79
2021/07/29 04:27:07;;;;;;;4.87;4.07;;;18.30;84.90;;;;;;5072104;28;20506;-83
2021/07/29 04:29:35;;;;;;;6.23;3.70;;;18.30;85.00;;;;;;5078501;28;20451;-83
2021/07/29 04:32:04;;;;;;;5.77;3.97;;;18.40;84.80;;;;;;5077697;28;20436;-80
2021/07/29 04:34:31;;;;;;;4.97;4.00;;;18.40;84.70;;;;;;5077670;28;20479;-81
2021/07/29 04:36:58;;;;;;;4.10;3.80;;;18.40;84.60;;;;;;5077224;28;20485;-81
2021/07/29 04:39:27;;;;;;;5.10;4.13;;;18.40;85.00;;;;;;5075879;28;21022;-83
2021/07/29 04:41:54;;;;;;;4.30;3.90;;;18.50;85.30;;;;;;5074626;28;20461;-81
2021/07/29 04:44:21;;;;;;;8.20;4.77;;;18.50;84.20;;;;;;5076824;28;20418;-79
2021/07/29 04:46:49;;;;;;;4.20;3.90;;;18.50;84.20;;;;;;5076207;28;20436;-81
2021/07/29 04:49:20;;;;;;;5.37;4.10;;;18.50;84.00;;;;;;5078427;28;20429;-84
2021/07/29 04:51:47;;;;;;;3.80;3.47;;;18.60;84.30;;;;;;5078614;28;20476;-83
2021/07/29 04:54:15;;;;;;;4.70;4.13;;;18.60;84.60;;;;;;5078661;28;20456;-82
2021/07/29 04:56:42;;;;;;;4.87;4.40;;;18.60;84.10;;;;;;5077970;28;20478;-82
2021/07/29 04:59:09;;;;;;;7.03;3.57;;;18.60;84.20;;;;;;5076322;28;20490;-81
2021/07/29 05:01:39;;;;;;;3.90;3.40;;;18.60;84.10;;;;;;5077563;28;20504;-83
2021/07/29 05:04:10;;;;;;;3.50;3.20;;;18.70;84.20;;;;;;5073117;28;20763;-82
2021/07/29 05:06:37;;;;;;;4.13;3.83;;;18.80;84.00;;;;;;5061196;28;20830;-82
2021/07/29 05:09:05;;;;;;;6.70;4.50;;;18.70;83.70;;;;;;5060290;28;20532;-81
2021/07/29 05:11:32;;;;;;;3.90;3.43;;;18.70;83.60;;;;;;5060375;28;20487;-83
2021/07/29 05:13:59;;;;;;;4.23;3.57;;;18.70;83.40;;;;;;5058377;28;20488;-82
2021/07/29 05:16:26;;;;;;;5.10;4.20;;;18.70;83.10;;;;;;5057863;28;20584;-83
2021/07/29 05:18:58;;;;;;;4.33;3.83;;;18.80;82.70;;;;;;5057642;28;20540;-82
2021/07/29 05:21:26;;;;;;;5.80;3.40;;;18.90;81.70;;;;;;5057270;28;20511;-82
2021/07/29 05:23:53;;;;;;;4.80;3.80;;;18.90;81.10;;;;;;5072276;28;20448;-83
2021/07/29 05:26:20;;;;;;;4.70;3.70;;;19.00;80.00;;;;;;5061847;28;20451;-83
2021/07/29 05:28:47;;;;;;;4.97;3.73;;;19.10;78.70;;;;;;5057824;28;20467;-83
2021/07/29 05:31:14;;;;;;;4.47;4.00;;;19.10;78.40;;;;;;5060558;28;20500;-84
2021/07/29 05:33:41;;;;;;;6.80;3.70;;;19.10;78.60;;;;;;5062635;28;21002;-83
2021/07/29 05:36:08;;;;;;;4.37;3.90;;;19.20;77.80;;;;;;5061448;28;20479;-85
2021/07/29 05:38:37;;;;;;;5.17;4.27;;;19.30;77.90;;;;;;5077884;28;20452;-85
2021/07/29 05:41:05;;;;;;;4.67;3.83;;;19.30;77.10;;;;;;5083123;28;20541;-82
2021/07/29 05:43:32;;;;;;;4.70;3.40;;;19.50;76.20;;;;;;5071234;28;20477;-81
2021/07/29 05:45:59;;;;;;;3.73;3.43;;;19.60;76.30;;;;;;5068343;28;20491;-80
2021/07/29 05:48:26;;;;;;;4.03;3.63;;;19.70;75.20;;;;;;5064067;28;20453;-83
2021/07/29 05:50:56;;;;;;;4.23;3.83;;;20.00;73.60;;;;;;5060008;28;20540;-84
2021/07/29 05:53:24;;;;;;;5.10;3.37;;;20.20;71.70;;;;;;5071312;28;20532;-84
2021/07/29 05:55:54;;;;;;;4.03;3.73;;;20.40;70.70;;;;;;5092893;28;20473;-79
2021/07/29 05:58:21;;;;;;;7.23;3.40;;;20.50;69.20;;;;;;5090951;28;20530;-79
2021/07/29 06:00:49;;;;;;;4.87;4.30;;;20.40;69.10;;;;;;5077126;28;20467;-78
2021/07/29 06:03:16;;;;;;;8.43;4.00;;;20.50;68.20;;;;;;5068477;28;20447;-81
2021/07/29 06:05:43;;;;;;;3.87;3.50;;;20.50;68.20;;;;;;5089980;28;20464;-80
2021/07/29 06:08:10;;;;;;;4.23;3.27;;;20.50;68.20;;;;;;5091566;28;20448;-80
2021/07/29 06:10:37;;;;;;;3.80;3.50;;;20.50;68.20;;;;;;5082187;28;20519;-80
2021/07/29 06:13:06;;;;;;;4.90;3.50;;;20.70;67.50;;;;;;5080514;28;20457;-79
2021/07/29 06:15:33;;;;;;;6.90;3.50;;;20.70;66.70;;;;;;5084280;28;20451;-79
2021/07/29 06:18:01;;;;;;;4.90;3.67;;;20.80;66.10;;;;;;5081420;28;20521;-79
2021/07/29 06:20:28;;;;;;;4.97;3.40;;;20.90;66.40;;;;;;5074113;28;20521;-80
2021/07/29 06:22:56;;;;;;;3.43;3.00;;;20.90;65.10;;;;;;5081281;28;20458;-80
2021/07/29 06:25:23;;;;;;;4.07;3.60;;;21.10;63.50;;;;;;5070024;28;20494;-80
2021/07/29 06:27:50;;;;;;;4.37;3.10;;;21.60;61.40;;;;;;5063067;28;20456;-80
2021/07/29 06:30:19;;;;;;;3.77;3.20;;;21.60;59.30;;;;;;5076024;28;20532;-80
2021/07/29 06:32:46;;;;;;;4.50;4.10;;;21.80;58.40;;;;;;5082234;28;20482;-80
2021/07/29 06:35:13;;;;;;;2.80;2.60;;;21.90;58.20;;;;;;5072886;28;20460;-81
2021/07/29 06:37:40;;;;;;;6.90;3.50;;;21.70;57.40;;;;;;5079297;28;20497;-80
2021/07/29 06:40:09;;;;;;;6.10;3.57;;;21.70;58.00;;;;;;5082743;28;20541;-78
2021/07/29 06:42:36;;;;;;;4.93;2.70;;;21.80;56.00;;;;;;5072747;28;20534;-80
2021/07/29 06:45:03;;;;;;;3.90;3.20;;;22.10;52.90;;;;;;5065335;28;20467;-79
2021/07/29 06:47:32;;;;;;;3.67;2.30;;;22.10;50.80;;;;;;5080579;28;20509;-79
2021/07/29 06:50:00;;;;;;;6.00;3.00;;;22.10;50.80;;;;;;5075369;28;20505;-80
2021/07/29 06:52:27;;;;;;;2.50;2.30;;;22.00;50.70;;;;;;5062691;28;20440;-79
2021/07/29 06:54:54;;;;;;;3.60;2.80;;;21.80;50.50;;;;;;5084265;28;20544;-79
2021/07/29 06:57:21;;;;;;;2.57;2.37;;;21.80;50.50;;;;;;5063427;28;20483;-81
2021/07/29 06:59:48;;;;;;;4.17;2.50;;;21.70;50.40;;;;;;5065908;28;20432;-81
2021/07/29 07:02:15;;;;;;;4.40;2.83;;;22.00;50.70;;;;;;5077652;28;20448;-82
2021/07/29 07:04:44;;;;;;;19.23;3.50;;;22.20;48.20;;;;;;5069615;28;20447;-80
2021/07/29 07:07:15;;;;;;;2.30;2.20;;;22.40;48.80;;;;;;5091330;28;20828;-81
2021/07/29 07:09:43;;;;;;;8.23;2.67;;;22.60;45.70;;;;;;5084663;28;20786;-81
2021/07/29 07:12:10;;;;;;;6.53;2.17;;;22.70;46.50;;;;;;5062703;28;20480;-82
2021/07/29 07:14:37;;;;;;;6.70;2.70;;;23.10;45.60;;;;;;5061383;28;20572;-81
2021/07/29 07:17:06;;;;;;;4.40;2.03;;;23.40;44.40;;;;;;5078220;28;20905;-81
2021/07/29 07:19:33;;;;;;;5.17;2.10;;;23.20;41.80;;;;;;5081243;28;20472;-82
2021/07/29 07:22:02;;;;;;;2.27;2.07;;;22.70;41.80;;;;;;5067429;28;20458;-82
2021/07/29 07:24:29;;;;;;;3.23;2.10;;;22.30;42.20;;;;;;5062823;28;20485;-81
2021/07/29 07:26:56;;;;;;;2.17;1.93;;;22.20;42.00;;;;;;5061829;28;20489;-81
2021/07/29 07:29:23;;;;;;;2.33;2.13;;;22.10;41.80;;;;;;5060864;28;20460;-82
2021/07/29 07:31:50;;;;;;;2.13;1.93;;;22.10;42.60;;;;;;5061172;28;20572;-82
2021/07/29 07:34:17;;;;;;;2.80;2.30;;;22.10;42.70;;;;;;5063700;28;20528;-83
2021/07/29 07:36:44;;;;;;;4.20;2.40;;;21.90;41.80;;;;;;5073527;28;20478;-83
2021/07/29 07:39:13;;;;;;;4.07;3.13;;;21.70;42.60;;;;;;5082519;28;20464;-82
2021/07/29 07:41:40;;;;;;;3.20;2.20;;;21.70;43.80;;;;;;5068628;28;20846;-81
2021/07/29 07:44:07;;;;;;;3.90;2.37;;;21.70;43.20;;;;;;5069771;28;20457;-84
2021/07/29 07:46:34;;;;;;;4.60;2.63;;;21.70;43.70;;;;;;5081135;28;20905;-82
2021/07/29 07:49:01;;;;;;;2.40;2.20;;;21.90;42.90;;;;;;5081901;28;20492;-82
2021/07/29 07:51:28;;;;;;;3.23;1.90;;;22.00;42.20;;;;;;5072049;28;20997;-82
2021/07/29 07:53:55;;;;;;;5.23;2.30;;;21.90;42.40;;;;;;5082541;28;20447;-82
2021/07/29 07:56:24;;;;;;;2.70;2.00;;;21.70;42.20;;;;;;5070864;28;20489;-83
2021/07/29 07:58:53;;;;;;;3.40;2.17;;;21.70;43.40;;;;;;5079981;28;20538;-82
2021/07/29 08:01:20;;;;;;;2.10;1.90;;;21.70;43.30;;;;;;5081079;28;21053;-83
2021/07/29 08:03:48;;;;;;;3.23;2.43;;;21.70;42.40;;;;;;5074283;28;20488;-82
2021/07/29 08:06:15;;;;;;;4.00;2.10;;;21.70;43.20;;;;;;5071456;28;20451;-81
2021/07/29 08:08:42;;;;;;;4.17;2.30;;;21.80;42.40;;;;;;5083491;28;20455;-80
2021/07/29 08:11:09;;;;;;;2.07;1.77;;;21.90;42.60;;;;;;5083599;28;20482;-79
2021/07/29 08:13:39;;;;;;;2.10;1.90;;;21.70;41.60;;;;;;5083062;28;20481;-79
2021/07/29 08:16:09;;;;;;;4.30;2.57;;;21.60;40.30;;;;;;5081564;28;20914;-83
2021/07/29 08:18:36;;;;;;;6.90;2.23;;;21.50;41.00;;;;;;5096080;28;20465;-84
2021/07/29 08:21:09;;;;;;;3.07;2.77;;;21.40;42.90;;;;;;5112210;28;20577;-83
2021/07/29 08:23:36;;;;;;;2.53;2.30;;;21.40;41.60;;;;;;5086322;28;20454;-83
2021/07/29 08:26:03;;;;;;;3.13;2.20;;;21.30;42.30;;;;;;5089464;28;20434;-84
2021/07/29 08:28:30;;;;;;;2.50;2.30;;;21.50;42.50;;;;;;5096407;28;20448;-80
2021/07/29 08:30:58;;;;;;;5.40;3.07;;;21.40;40.80;;;;;;5095834;28;20553;-80
2021/07/29 08:33:25;;;;;;;3.73;1.90;;;21.40;41.10;;;;;;5084094;28;20457;-80
2021/07/29 08:35:52;;;;;;;3.43;2.37;;;21.40;42.00;;;;;;5081279;28;20471;-81
2021/07/29 08:38:19;;;;;;;2.73;2.23;;;21.50;41.20;;;;;;5094903;28;20481;-81
2021/07/29 08:40:46;;;;;;;3.90;2.40;;;21.60;41.00;;;;;;5077416;28;20468;-80
2021/07/29 08:43:13;;;;;;;4.07;2.70;;;21.70;40.40;;;;;;5074770;28;20451;-83
2021/07/29 08:45:44;;;;;;;5.10;3.07;;;21.70;40.40;;;;;;5081256;28;20498;-80
2021/07/29 08:48:15;;;;;;;2.73;2.30;;;21.70;40.50;;;;;;5066535;28;20460;-80
2021/07/29 08:50:43;;;;;;;2.87;2.50;;;21.70;40.40;;;;;;5070963;28;20493;-80
2021/07/29 08:53:09;;;;;;;2.50;2.30;;;21.90;40.60;;;;;;5076956;28;20496;-81
2021/07/29 08:55:37;;;;;;;3.13;2.70;;;22.20;40.90;;;;;;5087283;28;20462;-80
2021/07/29 08:58:04;;;;;;;2.67;2.30;;;22.30;40.90;;;;;;5086030;28;20483;-79
2021/07/29 09:00:31;;;;;;;2.50;2.30;;;22.50;40.50;;;;;;5078034;28;20478;-80
2021/07/29 09:03:24;;;;;;;2.80;2.60;;;22.70;40.20;;;;;;5083183;28;20858;-82
2021/07/29 09:06:08;;;;;;;5.20;3.07;;;22.70;40.10;;;;;;5085095;28;20465;-82
2021/07/29 09:08:49;;;;;;;2.40;2.20;;;22.80;36.00;;;;;;5085155;28;20427;-81
2021/07/29 09:11:26;;;;;;;2.20;1.93;;;22.70;36.90;;;;;;5080895;28;20566;-81
2021/07/29 09:14:04;;;;;;;2.93;2.60;;;23.10;36.10;;;;;;5064269;28;20978;-81
2021/07/29 09:16:34;;;;;;;5.80;2.70;;;23.10;36.10;;;;;;5078910;28;20480;-81
2021/07/29 09:19:03;;;;;;;3.03;2.30;;;23.40;35.90;;;;;;5071411;28;20453;-80
2021/07/29 09:21:30;;;;;;;9.70;2.57;;;23.80;35.10;;;;;;5067820;28;20468;-80
2021/07/29 09:24:07;;;;;;;4.30;2.57;;;23.80;33.60;;;;;;5067318;28;20463;-79
2021/07/29 09:26:56;;;;;;;3.70;2.40;;;23.60;34.60;;;;;;5082535;28;20494;-81
2021/07/29 09:29:24;;;;;;;4.77;2.70;;;23.40;35.70;;;;;;5077333;28;20456;-80
2021/07/29 09:32:03;;;;;;;2.90;2.47;;;23.30;33.60;;;;;;5084359;28;20494;-80
2021/07/29 09:34:44;;;;;;;2.67;2.47;;;23.00;33.80;;;;;;5085378;28;20443;-82
2021/07/29 09:37:11;;;;;;;3.10;2.80;;;22.80;34.70;;;;;;5083984;28;20490;-78
2021/07/29 09:39:38;;;;;;;3.37;2.10;;;22.70;35.10;;;;;;5091877;28;20452;-80
2021/07/29 09:42:16;;;;;;;3.17;2.43;;;22.70;34.30;;;;;;5091380;28;20470;-81
2021/07/29 09:44:45;;;;;;;4.20;2.33;;;23.00;34.10;;;;;;5069200;28;20476;-81
2021/07/29 09:47:12;;;;;;;3.60;2.60;;;23.20;32.30;;;;;;5062014;28;20448;-79
2021/07/29 09:49:40;;;;;;;3.70;2.67;;;23.20;33.00;;;;;;5079401;28;20543;-80
2021/07/29 09:52:08;;;;;;;10.03;2.70;;;23.10;32.70;;;;;;5082463;28;20487;-80
2021/07/29 09:54:38;;;;;;;2.50;2.20;;;23.20;33.50;;;;;;5086539;28;20867;-81
2021/07/29 09:57:06;;;;;;;3.53;2.53;;;23.20;32.60;;;;;;5077871;28;20578;-80
2021/07/29 09:59:33;;;;;;;3.73;2.53;;;22.90;32.40;;;;;;5077967;28;20460;-81
2021/07/29 10:02:03;;;;;;;2.80;2.50;;;22.90;32.90;;;;;;5076017;28;20588;-82
2021/07/29 10:04:34;;;;;;;6.07;3.07;;;23.10;32.40;;;;;;5072608;28;20456;-81
2021/07/29 10:07:06;;;;;;;3.10;2.33;;;23.20;33.30;;;;;;5082560;28;20452;-80
2021/07/29 10:09:39;;;;;;;2.83;2.53;;;23.20;32.20;;;;;;5079215;28;21002;-80
2021/07/29 10:12:08;;;;;;;2.60;2.40;;;23.40;32.60;;;;;;5069444;28;20459;-79
2021/07/29 10:14:53;;;;;;;5.20;2.47;;;23.70;32.00;;;;;;5064744;28;20545;-79
2021/07/29 10:18:02;;;;;;;3.63;2.67;;;23.70;31.90;;;;;;5067117;28;20515;-80
2021/07/29 10:20:32;;;;;;;4.70;2.60;;;23.70;31.90;;;;;;5064511;28;20550;-81
2021/07/29 10:23:39;;;;;;;4.23;2.53;;;24.00;32.20;;;;;;5070851;28;20501;-80
2021/07/29 10:26:10;;;;;;;4.60;3.10;;;24.20;32.40;;;;;;5088708;28;20440;-82
2021/07/29 10:28:41;;;;;;;3.83;2.80;;;24.30;32.50;;;;;;5086353;28;20460;-81
2021/07/29 10:31:11;;;;;;;3.20;2.87;;;24.40;31.20;;;;;;5071948;28;20485;-82
2021/07/29 10:33:38;;;;;;;5.40;2.50;;;24.30;31.10;;;;;;5065744;28;20490;-84
2021/07/29 10:36:06;;;;;;;4.47;3.00;;;24.40;31.40;;;;;;5066929;28;20449;-82
2021/07/29 10:38:50;;;;;;;3.13;2.83;;;24.50;30.50;;;;;;5062889;28;20496;-82
2021/07/29 10:41:50;;;;;;;6.10;3.07;;;24.20;31.10;;;;;;5082028;28;20484;-81
2021/07/29 10:44:46;;;;;;;2.63;2.23;;;24.10;32.30;;;;;;5040320;28;20958;-81
2021/07/29 10:47:17;;;;;;;3.70;2.97;;;24.30;31.20;;;;;;5081393;28;20457;-83
2021/07/29 10:50:17;;;;;;;2.87;2.67;;;24.40;31.00;;;;;;5069294;28;20433;-80
2021/07/29 10:52:50;;;;;;;3.30;2.97;;;24.70;30.00;;;;;;5070579;28;20442;-82
2021/07/29 10:55:18;;;;;;;2.57;2.37;;;24.90;29.40;;;;;;5072050;28;20453;-80
2021/07/29 10:58:03;;;;;;;2.87;2.67;;;24.90;29.80;;;;;;5068290;28;20501;-81
2021/07/29 11:00:30;;;;;;;2.90;2.70;;;25.00;29.70;;;;;;5062689;28;20469;-81
2021/07/29 11:03:03;;;;;;;3.67;2.43;;;25.30;30.40;;;;;;5065674;28;20469;-80
2021/07/29 11:05:40;;;;;;;3.20;2.87;;;25.40;29.00;;;;;;5064406;28;20462;-80
2021/07/29 11:08:07;;;;;;;3.20;2.73;;;25.40;29.40;;;;;;5065685;28;20481;-81
2021/07/29 11:10:36;;;;;;;4.50;3.10;;;25.30;29.60;;;;;;5064731;28;20912;-80
2021/07/29 11:13:07;;;;;;;5.13;2.43;;;25.30;29.50;;;;;;5063688;28;20471;-81
2021/07/29 11:15:39;;;;;;;6.87;3.27;;;24.70;30.60;;;;;;5064393;28;20906;-80
2021/07/29 11:18:17;;;;;;;7.60;2.53;;;24.40;32.50;;;;;;5069501;28;20855;-80
2021/07/29 11:20:44;;;;;;;2.40;2.20;;;24.30;32.00;;;;;;5085745;28;20456;-80
2021/07/29 11:23:14;;;;;;;6.53;2.80;;;24.50;30.30;;;;;;5085486;28;20453;-80
2021/07/29 11:25:57;;;;;;;3.20;2.57;;;24.60;31.60;;;;;;5076912;28;20866;-80
2021/07/29 11:28:28;;;;;;;4.83;2.63;;;24.70;30.40;;;;;;5068315;28;20448;-80
2021/07/29 11:30:55;;;;;;;3.03;2.47;;;24.60;29.90;;;;;;5084911;28;20454;-81
2021/07/29 11:33:23;;;;;;;2.90;2.60;;;24.50;30.00;;;;;;5089002;28;20540;-80
2021/07/29 11:35:50;;;;;;;3.37;2.60;;;24.50;30.00;;;;;;5093237;28;20427;-81
2021/07/29 11:38:18;;;;;;;5.93;2.70;;;24.40;29.50;;;;;;5087201;28;20459;-80
2021/07/29 11:40:46;;;;;;;4.80;3.00;;;24.30;30.20;;;;;;5098399;28;20488;-80
2021/07/29 11:43:22;;;;;;;3.80;2.90;;;24.30;30.00;;;;;;5084774;28;20436;-80
2021/07/29 11:45:51;;;;;;;3.13;2.67;;;24.50;30.20;;;;;;5097825;28;20435;-80
2021/07/29 11:48:23;;;;;;;4.43;2.67;;;24.70;29.40;;;;;;5062930;28;20448;-82
2021/07/29 11:50:52;;;;;;;6.03;2.70;;;24.70;29.40;;;;;;5065734;28;20563;-82
2021/07/29 11:53:19;;;;;;;2.60;2.40;;;24.80;29.70;;;;;;5081952;28;20520;-81
2021/07/29 11:55:55;;;;;;;3.27;2.50;;;24.90;29.80;;;;;;5083116;28;20496;-80
2021/07/29 11:58:22;;;;;;;2.67;2.47;;;24.80;29.40;;;;;;5081738;28;20486;-81
2021/07/29 12:00:51;;;;;;;3.23;2.93;;;24.90;29.80;;;;;;5068485;28;20538;-81
2021/07/29 12:03:30;;;;;;;3.83;2.80;;;25.00;29.30;;;;;;5062814;28;20455;-80
2021/07/29 12:05:59;;;;;;;6.30;3.40;;;24.90;28.60;;;;;;5060202;28;20439;-81
2021/07/29 12:08:27;;;;;;;4.50;3.03;;;24.90;28.60;;;;;;5070343;28;20447;-80
2021/07/29 12:10:56;;;;;;;3.47;3.17;;;25.00;28.40;;;;;;5065647;28;20504;-81
2021/07/29 12:13:23;;;;;;;2.80;2.60;;;25.50;28.40;;;;;;5080040;28;20450;-79
2021/07/29 12:15:52;;;;;;;2.80;2.57;;;25.80;27.70;;;;;;5083530;28;20454;-83
2021/07/29 12:18:20;;;;;;;2.63;2.43;;;25.90;27.60;;;;;;5086486;28;20471;-78
2021/07/29 12:20:49;;;;;;;2.67;2.50;;;25.30;29.00;;;;;;5083569;28;20509;-83
2021/07/29 12:23:17;;;;;;;5.30;3.07;;;25.20;28.90;;;;;;5071312;28;20428;-80
2021/07/29 12:25:45;;;;;;;3.90;2.40;;;25.00;29.50;;;;;;5061256;28;20457;-81
2021/07/29 12:28:13;;;;;;;4.00;2.50;;;25.10;29.10;;;;;;5080446;28;20528;-80
2021/07/29 12:30:42;;;;;;;3.30;2.40;;;25.00;29.10;;;;;;5078476;28;20459;-79
2021/07/29 12:33:13;;;;;;;2.70;2.50;;;24.90;29.40;;;;;;5074750;28;20470;-80
2021/07/29 12:35:42;;;;;;;3.00;1.90;;;25.10;29.70;;;;;;5063038;28;20449;-80
2021/07/29 12:38:10;;;;;;;2.80;2.30;;;25.10;28.00;;;;;;5079005;28;20478;-81
2021/07/29 12:40:37;;;;;;;3.00;2.70;;;25.20;28.30;;;;;;5081636;28;20532;-80
2021/07/29 12:43:21;;;;;;;4.97;2.60;;;24.90;28.00;;;;;;5065111;28;20457;-80
2021/07/29 12:45:49;;;;;;;2.63;2.30;;;24.80;28.80;;;;;;5061538;28;20458;-81
2021/07/29 12:48:17;;;;;;;3.07;2.50;;;24.90;28.60;;;;;;5073451;28;20463;-82
2021/07/29 12:50:44;;;;;;;2.60;2.40;;;25.10;28.90;;;;;;5081576;28;20582;-80
2021/07/29 12:53:13;;;;;;;3.07;2.77;;;25.20;28.30;;;;;;5067492;28;20456;-80
2021/07/29 12:55:41;;;;;;;3.57;2.33;;;25.10;28.30;;;;;;5063034;28;20441;-80
2021/07/29 12:58:08;;;;;;;4.17;2.60;;;25.20;28.30;;;;;;5066097;28;20490;-80
2021/07/29 13:00:38;;;;;;;3.03;2.60;;;25.20;28.50;;;;;;5074470;28;20530;-80